createdAt,value
2023-01-11T00:05:44.759Z,8.50
2023-01-11T00:08:12.393Z,8.00
2023-01-11T00:15:36.393Z,8.00
2023-01-11T00:30:19.307Z,8.00
2023-01-11T00:40:08.226Z,8.00
2023-01-11T00:50:36.500Z,8.30
2023-01-11T00:53:04.061Z,8.30
2023-01-11T01:00:30.315Z,8.40
2023-01-11T01:10:19.520Z,8.50
2023-01-11T01:15:32.560Z,8.60
2023-01-11T01:32:42.493Z,8.70
2023-01-11T01:40:04.985Z,8.80
2023-01-11T01:45:23.614Z,8.80
2023-01-11T01:47:57.076Z,8.70
2023-01-11T01:50:29.086Z,8.90
2023-01-11T01:53:04.372Z,8.70
2023-01-11T01:55:35.946Z,8.90
2023-01-11T01:58:06.925Z,8.90
2023-01-11T02:03:02.040Z,8.90
2023-01-11T02:07:59.354Z,8.90
2023-01-11T02:13:02.572Z,9.00
2023-01-11T02:15:29.524Z,9.10
2023-01-11T02:20:45.129Z,9.10
2023-01-11T02:23:40.103Z,9.10
2023-01-11T02:26:40.053Z,9.10
2023-01-11T02:29:09.590Z,9.10
2023-01-11T02:31:58.631Z,9.20
2023-01-11T02:34:38.719Z,9.10
2023-01-11T02:37:30.140Z,9.20
2023-01-11T02:40:08.104Z,9.20
2023-01-11T02:43:09.743Z,9.20
2023-01-11T02:45:50.401Z,9.30
2023-01-11T02:48:28.893Z,9.30
2023-01-11T02:53:34.552Z,9.30
2023-01-11T02:56:06.014Z,9.30
2023-01-11T02:58:36.870Z,9.30
2023-01-11T03:01:04.405Z,9.40
2023-01-11T03:06:06.815Z,9.40
2023-01-11T03:09:06.630Z,9.40
2023-01-11T03:12:06.930Z,9.50
2023-01-11T03:15:04.037Z,9.50
2023-01-11T03:17:55.629Z,9.50
2023-01-11T03:20:34.163Z,9.50
2023-01-11T03:23:23.346Z,9.60
2023-01-11T03:25:58.899Z,9.60
2023-01-11T03:28:34.507Z,9.60
2023-01-11T03:31:25.305Z,9.60
2023-01-11T03:36:34.723Z,9.60
2023-01-11T03:39:09.789Z,9.70
2023-01-11T03:41:40.165Z,9.90
2023-01-11T03:44:09.212Z,9.80
2023-01-11T03:46:45.979Z,9.60
2023-01-11T03:49:22.739Z,9.80
2023-01-11T03:51:51.573Z,9.80
2023-01-11T03:54:24.423Z,9.70
2023-01-11T03:57:13.193Z,9.80
2023-01-11T03:59:40.486Z,9.80
2023-01-11T04:02:15.291Z,9.80
2023-01-11T04:16:59.179Z,9.90
2023-01-11T04:29:15.237Z,10.00
2023-01-11T04:36:36.498Z,10.10
2023-01-11T05:11:19.008Z,10.00
2023-01-11T05:13:45.655Z,10.10
2023-01-11T05:18:45.275Z,10.00
2023-01-11T05:21:13.812Z,10.00
2023-01-11T05:23:41.755Z,10.00
2023-01-11T05:26:11.677Z,10.00
2023-01-11T05:36:02.115Z,10.20
2023-01-11T05:43:23.582Z,10.10
2023-01-11T05:58:06.712Z,10.00
2023-01-11T06:03:01.628Z,10.00
2023-01-11T06:13:12.685Z,10.00
2023-01-11T06:15:39.982Z,10.00
2023-01-11T06:27:57.604Z,9.90
2023-01-11T06:32:53.090Z,9.90
2023-01-11T06:42:41.250Z,9.80
2023-01-11T06:57:23.551Z,9.90
2023-01-11T07:19:26.959Z,9.90
2023-01-11T07:24:20.578Z,10.00
2023-01-11T07:36:39.417Z,10.00
2023-01-11T07:39:07.003Z,10.00
2023-01-11T07:46:46.461Z,10.00
2023-01-11T08:14:21.363Z,10.00
2023-01-11T08:24:11.139Z,10.00
2023-01-11T08:29:04.818Z,10.00
2023-01-11T08:38:57.659Z,10.10
2023-01-11T08:41:25.125Z,10.10
2023-01-11T08:51:14.231Z,10.10
2023-01-11T09:03:31.230Z,10.20
2023-01-11T09:08:26.212Z,10.20
2023-01-11T09:13:19.908Z,10.20
2023-01-11T09:18:14.881Z,10.20
2023-01-11T09:20:41.515Z,10.10
2023-01-11T09:37:54.968Z,10.40
2023-01-11T09:40:42.003Z,10.40
2023-01-11T09:43:14.791Z,10.40
2023-01-11T09:45:46.823Z,10.30
2023-01-11T09:48:33.183Z,10.40
2023-01-11T09:51:01.471Z,10.40
2023-01-11T09:53:34.803Z,10.40
2023-01-11T09:56:05.020Z,10.50
2023-01-11T09:58:54.817Z,10.40
2023-01-11T10:01:53.498Z,10.40
2023-01-11T10:04:45.647Z,10.40
2023-01-11T10:18:37.854Z,10.50
2023-01-11T10:18:39.202Z,10.50
2023-01-11T10:20:27.733Z,10.60
2023-01-11T10:23:04.926Z,10.50
2023-01-11T10:25:44.072Z,10.60
2023-01-11T10:28:46.935Z,10.60
2023-01-11T10:31:49.180Z,10.70
2023-01-11T10:34:50.414Z,10.60
2023-01-11T10:37:59.767Z,10.70
2023-01-11T10:40:35.180Z,10.70
2023-01-11T10:43:16.982Z,10.90
2023-01-11T10:48:33.173Z,11.00
2023-01-11T10:51:29.753Z,11.00
2023-01-11T10:57:02.718Z,11.00
2023-01-11T11:02:42.200Z,11.20
2023-01-11T11:05:26.230Z,11.10
2023-01-11T11:07:58.528Z,11.10
2023-01-11T11:10:53.174Z,11.10
2023-01-11T11:16:26.805Z,11.10
2023-01-11T11:18:59.050Z,11.10
2023-01-11T11:21:33.848Z,11.10
2023-01-11T11:24:16.979Z,11.10
2023-01-11T11:26:49.329Z,11.10
2023-01-11T11:29:22.775Z,11.00
2023-01-11T11:34:20.677Z,11.10
2023-01-11T11:36:50.113Z,11.00
2023-01-11T11:39:25.157Z,11.00
2023-01-11T11:41:56.113Z,11.00
2023-01-11T11:44:27.733Z,11.00
2023-01-11T11:47:06.008Z,10.90
2023-01-11T11:49:35.441Z,10.90
2023-01-11T11:52:05.110Z,10.90
2023-01-11T11:54:34.797Z,10.90
2023-01-11T11:57:28.330Z,10.90
2023-01-11T12:00:06.381Z,10.80
2023-01-11T12:02:36.200Z,10.90
2023-01-11T12:05:09.953Z,10.80
2023-01-11T12:07:54.234Z,10.90
2023-01-11T12:10:24.413Z,10.80
2023-01-11T12:13:02.573Z,10.80
2023-01-11T12:15:31.377Z,10.80
2023-01-11T12:18:28.888Z,10.80
2023-01-11T12:23:25.504Z,10.80
2023-01-11T12:26:10.641Z,10.80
2023-01-11T12:28:46.351Z,10.70
2023-01-11T12:31:46.918Z,10.70
2023-01-11T12:34:34.683Z,10.70
2023-01-11T12:37:31.834Z,10.70
2023-01-11T12:40:13.743Z,10.70
2023-01-11T12:42:52.805Z,10.70
2023-01-11T12:45:57.100Z,10.70
2023-01-11T12:48:45.144Z,10.70
2023-01-11T12:53:58.962Z,10.70
2023-01-11T12:56:49.860Z,10.70
2023-01-11T12:59:39.685Z,10.70
2023-01-11T13:02:47.125Z,10.70
2023-01-11T13:05:35.706Z,10.70
2023-01-11T13:08:53.104Z,10.70
2023-01-11T13:11:52.231Z,10.70
2023-01-11T13:14:22.459Z,10.60
2023-01-11T13:17:09.525Z,10.60
2023-01-11T13:22:10.793Z,10.60
2023-01-11T13:24:38.325Z,10.50
2023-01-11T13:27:08.055Z,10.60
2023-01-11T13:29:39.794Z,10.60
2023-01-11T13:32:16.734Z,10.60
2023-01-11T13:35:16.024Z,10.60
2023-01-11T13:37:54.736Z,10.60
2023-01-11T13:40:28.738Z,10.60
2023-01-11T13:43:05.237Z,10.60
2023-01-11T13:45:47.880Z,10.60
2023-01-11T13:48:27.193Z,10.60
2023-01-11T13:51:02.811Z,10.60
2023-01-11T13:53:43.538Z,10.50
2023-01-11T13:56:17.369Z,10.60
2023-01-11T13:58:55.919Z,10.60
2023-01-11T14:01:40.049Z,10.60
2023-01-11T14:04:30.518Z,10.50
2023-01-11T14:07:17.080Z,10.40
2023-01-11T14:10:02.530Z,10.30
2023-01-11T14:12:52.981Z,10.30
2023-01-11T14:15:40.523Z,10.10
2023-01-11T14:21:11.655Z,10.50
2023-01-11T14:23:49.144Z,10.40
2023-01-11T14:26:34.721Z,10.40
2023-01-11T14:29:38.682Z,10.30
2023-01-11T14:32:43.336Z,10.40
2023-01-11T14:35:25.221Z,10.40
2023-01-11T14:38:06.745Z,10.40
2023-01-11T14:41:15.706Z,10.40
2023-01-11T14:44:20.115Z,10.40
2023-01-11T14:49:53.633Z,10.10
2023-01-11T14:52:39.291Z,10.20
2023-01-11T14:55:20.359Z,10.20
2023-01-11T14:57:55.849Z,10.20
2023-01-11T15:00:22.488Z,10.20
2023-01-11T15:02:59.613Z,10.20
2023-01-11T15:05:54.280Z,10.20
2023-01-11T15:08:27.055Z,10.20
2023-01-11T15:13:23.054Z,10.20
2023-01-11T15:18:44.735Z,10.10
2023-01-11T15:21:17.638Z,10.10
2023-01-11T15:23:51.006Z,10.10
2023-01-11T15:26:21.195Z,10.00
2023-01-11T15:29:00.148Z,10.10
2023-01-11T15:31:34.167Z,10.00
2023-01-11T15:34:16.480Z,10.00
2023-01-11T15:37:25.126Z,10.00
2023-01-11T15:39:57.843Z,10.00
2023-01-11T15:42:43.399Z,9.90
2023-01-11T15:45:22.780Z,9.90
2023-01-11T15:50:34.831Z,9.80
2023-01-11T15:53:29.802Z,9.80
2023-01-11T15:56:20.126Z,9.70
2023-01-11T15:59:17.785Z,9.60
2023-01-11T16:02:13.396Z,9.60
2023-01-11T16:04:53.221Z,9.50
2023-01-11T16:07:40.625Z,9.40
2023-01-11T16:10:27.507Z,9.30
2023-01-11T16:13:00.439Z,9.20
2023-01-11T16:15:35.517Z,9.10
2023-01-11T16:18:17.931Z,9.20
2023-01-11T16:20:56.236Z,9.10
2023-01-11T16:25:57.305Z,9.00
2023-01-11T16:28:25.372Z,9.00
2023-01-11T16:31:01.675Z,9.00
2023-01-11T16:33:30.613Z,9.00
2023-01-11T16:36:10.794Z,9.00
2023-01-11T16:38:56.798Z,9.00
2023-01-11T16:41:27.534Z,9.00
2023-01-11T16:44:08.763Z,9.00
2023-01-11T16:46:56.479Z,9.00
2023-01-11T16:54:27.292Z,8.80
2023-01-11T16:56:54.817Z,8.70
2023-01-11T16:59:26.456Z,8.80
2023-01-11T17:02:01.156Z,8.80
2023-01-11T17:06:56.026Z,8.90
2023-01-11T17:11:52.612Z,8.90
2023-01-11T17:14:25.331Z,8.80
2023-01-11T17:16:59.098Z,8.70
2023-01-11T17:19:37.579Z,8.80
2023-01-11T17:22:30.688Z,8.80
2023-01-11T17:25:04.448Z,8.70
2023-01-11T17:27:40.525Z,8.60
2023-01-11T17:30:23.861Z,8.60
2023-01-11T17:32:52.986Z,8.60
2023-01-11T17:35:23.071Z,8.60
2023-01-11T17:37:51.869Z,8.50
2023-01-11T17:40:36.184Z,8.50
2023-01-11T17:43:28.408Z,8.40
2023-01-11T17:45:59.210Z,8.30
2023-01-11T17:48:27.475Z,8.30
2023-01-11T17:50:57.264Z,8.20
2023-01-11T17:53:28.293Z,8.00
2023-01-11T17:55:57.638Z,8.10
2023-01-11T17:58:38.039Z,8.10
2023-01-11T18:03:47.961Z,8.10
2023-01-11T18:06:31.564Z,8.00
2023-01-11T18:09:00.229Z,8.10
2023-01-11T18:11:30.216Z,8.00
2023-01-11T18:14:01.108Z,8.00
2023-01-11T18:16:28.416Z,8.00
2023-01-11T18:18:55.654Z,7.70
2023-01-11T18:21:25.222Z,8.00
2023-01-11T18:24:10.417Z,8.00
2023-01-11T18:26:39.220Z,7.90
2023-01-11T18:29:06.390Z,7.90
2023-01-11T18:51:41.483Z,7.90
2023-01-11T18:54:17.179Z,7.90
2023-01-11T19:31:23.623Z,7.90
2023-01-11T19:41:12.106Z,7.90
2023-01-11T19:46:13.576Z,8.00
2023-01-11T19:51:10.567Z,8.00
2023-01-11T19:56:07.444Z,7.80
2023-01-11T19:58:37.199Z,7.90
2023-01-11T20:01:13.243Z,7.90
2023-01-11T20:11:10.628Z,7.90
2023-01-11T20:16:13.635Z,8.00
2023-01-11T20:21:10.371Z,7.80
2023-01-11T20:26:06.897Z,8.00
2023-01-11T20:28:33.973Z,8.00
2023-01-11T20:31:02.202Z,8.00
2023-01-11T20:45:55.244Z,7.90
2023-01-11T20:58:11.014Z,8.00
2023-01-11T21:05:31.865Z,8.20
2023-01-11T21:07:59.162Z,8.10
2023-01-11T21:15:23.877Z,8.20
2023-01-11T21:27:39.789Z,8.30
2023-01-11T21:39:57.885Z,8.20
2023-01-11T22:06:58.662Z,8.20
2023-01-11T22:11:55.350Z,8.70
2023-01-11T22:16:49.297Z,8.60
2023-01-11T22:19:16.984Z,8.40
2023-01-11T22:24:15.337Z,8.40
2023-01-11T22:29:12.778Z,8.30
2023-01-11T22:31:45.947Z,8.40
2023-01-11T22:34:13.900Z,8.40
2023-01-11T22:36:41.488Z,8.30
2023-01-11T22:51:25.071Z,8.10
2023-01-11T22:53:54.112Z,8.10
2023-01-11T22:56:24.869Z,8.10
2023-01-11T22:58:55.580Z,8.20
2023-01-11T23:01:32.216Z,8.10
2023-01-11T23:03:59.861Z,8.10
2023-01-11T23:06:31.661Z,8.10
2023-01-11T23:08:59.344Z,8.10
2023-01-11T23:11:47.559Z,8.10
2023-01-11T23:14:19.975Z,8.10
2023-01-11T23:16:48.426Z,8.10
2023-01-11T23:19:17.811Z,8.00
2023-01-11T23:21:45.760Z,8.00
2023-01-11T23:24:14.386Z,8.00
2023-01-11T23:29:08.375Z,8.10
2023-01-11T23:34:03.174Z,8.00
2023-01-11T23:36:33.019Z,8.10
2023-01-11T23:41:45.637Z,8.10
2023-01-11T23:44:14.110Z,8.10
2023-01-11T23:46:59.982Z,8.10
2023-01-11T23:49:27.682Z,8.10
2023-01-11T23:51:55.579Z,8.00
2023-01-11T23:54:23.054Z,8.20
